sensor_id;sensor_type;location;lat;lon;timestamp;temperature;humidity
58447;DHT22;44240;51.840;7.258;2024-03-06T00:01:08;9.30;83.00
58447;DHT22;44240;51.840;7.258;2024-03-06T00:03:35;9.40;82.90
58447;DHT22;44240;51.840;7.258;2024-03-06T00:06:02;9.40;82.90
58447;DHT22;44240;51.840;7.258;2024-03-06T00:08:28;9.40;82.90
58447;DHT22;44240;51.840;7.258;2024-03-06T00:10:55;9.40;82.80
58447;DHT22;44240;51.840;7.258;2024-03-06T00:13:22;9.40;82.80
58447;DHT22;44240;51.840;7.258;2024-03-06T00:15:49;9.40;82.70
58447;DHT22;44240;51.840;7.258;2024-03-06T00:18:16;9.40;82.70
58447;DHT22;44240;51.840;7.258;2024-03-06T00:20:43;9.40;82.70
58447;DHT22;44240;51.840;7.258;2024-03-06T00:23:11;9.40;82.60
58447;DHT22;44240;51.840;7.258;2024-03-06T00:25:38;9.50;82.70
58447;DHT22;44240;51.840;7.258;2024-03-06T00:28:05;9.40;82.60
58447;DHT22;44240;51.840;7.258;2024-03-06T00:30:32;9.40;82.60
58447;DHT22;44240;51.840;7.258;2024-03-06T00:32:59;9.40;82.60
58447;DHT22;44240;51.840;7.258;2024-03-06T00:35:26;9.40;83.60
58447;DHT22;44240;51.840;7.258;2024-03-06T00:37:53;9.50;82.70
58447;DHT22;44240;51.840;7.258;2024-03-06T00:40:20;9.50;82.70
58447;DHT22;44240;51.840;7.258;2024-03-06T00:42:47;9.50;82.60
58447;DHT22;44240;51.840;7.258;2024-03-06T00:45:14;9.50;82.60
58447;DHT22;44240;51.840;7.258;2024-03-06T00:47:40;9.40;83.10
58447;DHT22;44240;51.840;7.258;2024-03-06T00:50:08;9.40;82.50
58447;DHT22;44240;51.840;7.258;2024-03-06T00:52:35;9.40;82.50
58447;DHT22;44240;51.840;7.258;2024-03-06T00:55:02;9.50;82.70
58447;DHT22;44240;51.840;7.258;2024-03-06T00:57:29;9.40;82.50
58447;DHT22;44240;51.840;7.258;2024-03-06T00:59:56;9.40;82.50
58447;DHT22;44240;51.840;7.258;2024-03-06T01:02:23;9.40;82.50
58447;DHT22;44240;51.840;7.258;2024-03-06T01:04:50;9.40;82.50
58447;DHT22;44240;51.840;7.258;2024-03-06T01:07:17;9.40;82.50
58447;DHT22;44240;51.840;7.258;2024-03-06T01:09:43;9.40;82.50
58447;DHT22;44240;51.840;7.258;2024-03-06T01:12:10;9.40;82.40
58447;DHT22;44240;51.840;7.258;2024-03-06T01:14:37;9.40;82.40
58447;DHT22;44240;51.840;7.258;2024-03-06T01:17:06;9.30;82.40
58447;DHT22;44240;51.840;7.258;2024-03-06T01:19:33;9.40;82.50
58447;DHT22;44240;51.840;7.258;2024-03-06T01:22:00;9.30;82.50
58447;DHT22;44240;51.840;7.258;2024-03-06T01:24:27;9.30;82.50
58447;DHT22;44240;51.840;7.258;2024-03-06T01:26:54;9.30;82.50
58447;DHT22;44240;51.840;7.258;2024-03-06T01:29:21;9.30;82.40
58447;DHT22;44240;51.840;7.258;2024-03-06T01:31:48;9.30;82.40
58447;DHT22;44240;51.840;7.258;2024-03-06T01:34:17;9.30;82.50
58447;DHT22;44240;51.840;7.258;2024-03-06T01:36:44;9.30;82.40
58447;DHT22;44240;51.840;7.258;2024-03-06T01:39:11;9.30;82.40
58447;DHT22;44240;51.840;7.258;2024-03-06T01:41:37;9.20;82.40
58447;DHT22;44240;51.840;7.258;2024-03-06T01:44:10;9.30;82.40
58447;DHT22;44240;51.840;7.258;2024-03-06T01:46:38;9.30;82.30
58447;DHT22;44240;51.840;7.258;2024-03-06T01:49:05;9.20;82.30
58447;DHT22;44240;51.840;7.258;2024-03-06T01:51:33;9.20;82.30
58447;DHT22;44240;51.840;7.258;2024-03-06T01:54:01;9.10;82.20
58447;DHT22;44240;51.840;7.258;2024-03-06T01:56:34;9.20;82.30
58447;DHT22;44240;51.840;7.258;2024-03-06T01:59:01;9.20;82.30
58447;DHT22;44240;51.840;7.258;2024-03-06T02:01:32;9.10;82.30
58447;DHT22;44240;51.840;7.258;2024-03-06T02:03:59;9.10;82.30
58447;DHT22;44240;51.840;7.258;2024-03-06T02:06:27;9.10;82.30
58447;DHT22;44240;51.840;7.258;2024-03-06T02:08:54;9.10;82.20
58447;DHT22;44240;51.840;7.258;2024-03-06T02:11:22;9.10;82.20
58447;DHT22;44240;51.840;7.258;2024-03-06T02:13:49;9.10;82.30
58447;DHT22;44240;51.840;7.258;2024-03-06T02:16:16;9.10;82.30
58447;DHT22;44240;51.840;7.258;2024-03-06T02:18:53;9.10;82.30
58447;DHT22;44240;51.840;7.258;2024-03-06T02:21:21;9.10;82.30
58447;DHT22;44240;51.840;7.258;2024-03-06T02:23:50;9.10;82.20
58447;DHT22;44240;51.840;7.258;2024-03-06T02:26:18;9.10;82.20
58447;DHT22;44240;51.840;7.258;2024-03-06T02:28:49;9.10;82.20
58447;DHT22;44240;51.840;7.258;2024-03-06T02:31:19;9.00;82.30
58447;DHT22;44240;51.840;7.258;2024-03-06T02:33:48;9.00;82.30
58447;DHT22;44240;51.840;7.258;2024-03-06T02:36:17;9.00;82.40
58447;DHT22;44240;51.840;7.258;2024-03-06T02:38:44;9.00;82.50
58447;DHT22;44240;51.840;7.258;2024-03-06T02:41:11;9.00;82.50
58447;DHT22;44240;51.840;7.258;2024-03-06T02:43:40;9.00;82.40
58447;DHT22;44240;51.840;7.258;2024-03-06T02:46:07;8.90;82.30
58447;DHT22;44240;51.840;7.258;2024-03-06T02:48:34;9.00;82.40
58447;DHT22;44240;51.840;7.258;2024-03-06T02:51:01;8.90;82.30
58447;DHT22;44240;51.840;7.258;2024-03-06T02:53:28;8.90;82.40
58447;DHT22;44240;51.840;7.258;2024-03-06T02:55:55;8.90;82.30
58447;DHT22;44240;51.840;7.258;2024-03-06T02:58:22;8.90;82.30
58447;DHT22;44240;51.840;7.258;2024-03-06T03:00:49;8.90;82.30
58447;DHT22;44240;51.840;7.258;2024-03-06T03:03:16;8.80;82.30
58447;DHT22;44240;51.840;7.258;2024-03-06T03:05:42;8.90;82.30
58447;DHT22;44240;51.840;7.258;2024-03-06T03:08:09;8.80;82.30
58447;DHT22;44240;51.840;7.258;2024-03-06T03:10:36;8.80;82.30
58447;DHT22;44240;51.840;7.258;2024-03-06T03:13:03;8.80;82.20
58447;DHT22;44240;51.840;7.258;2024-03-06T03:15:31;8.80;82.20
58447;DHT22;44240;51.840;7.258;2024-03-06T03:17:59;8.80;82.20
58447;DHT22;44240;51.840;7.258;2024-03-06T03:20:26;8.80;82.20
58447;DHT22;44240;51.840;7.258;2024-03-06T03:22:54;8.80;82.30
58447;DHT22;44240;51.840;7.258;2024-03-06T03:25:21;8.70;82.30
58447;DHT22;44240;51.840;7.258;2024-03-06T03:27:48;8.70;82.30
58447;DHT22;44240;51.840;7.258;2024-03-06T03:30:15;8.70;82.20
58447;DHT22;44240;51.840;7.258;2024-03-06T03:32:42;8.70;82.20
58447;DHT22;44240;51.840;7.258;2024-03-06T03:35:09;8.70;82.20
58447;DHT22;44240;51.840;7.258;2024-03-06T03:37:37;8.70;82.20
58447;DHT22;44240;51.840;7.258;2024-03-06T03:40:04;8.70;82.20
58447;DHT22;44240;51.840;7.258;2024-03-06T03:42:31;8.70;82.30
58447;DHT22;44240;51.840;7.258;2024-03-06T03:44:58;8.70;82.20
58447;DHT22;44240;51.840;7.258;2024-03-06T03:47:25;8.70;82.20
58447;DHT22;44240;51.840;7.258;2024-03-06T03:49:52;8.70;82.20
58447;DHT22;44240;51.840;7.258;2024-03-06T03:52:35;8.70;82.20
58447;DHT22;44240;51.840;7.258;2024-03-06T03:55:02;8.70;82.20
58447;DHT22;44240;51.840;7.258;2024-03-06T03:57:31;8.70;82.30
58447;DHT22;44240;51.840;7.258;2024-03-06T03:59:57;8.70;82.20
58447;DHT22;44240;51.840;7.258;2024-03-06T04:02:24;8.70;82.30
58447;DHT22;44240;51.840;7.258;2024-03-06T04:04:51;8.70;82.30
58447;DHT22;44240;51.840;7.258;2024-03-06T04:07:18;8.60;82.20
58447;DHT22;44240;51.840;7.258;2024-03-06T04:09:45;8.70;82.20
58447;DHT22;44240;51.840;7.258;2024-03-06T04:12:14;8.60;82.20
58447;DHT22;44240;51.840;7.258;2024-03-06T04:14:41;8.60;82.20
58447;DHT22;44240;51.840;7.258;2024-03-06T04:17:08;8.60;82.20
58447;DHT22;44240;51.840;7.258;2024-03-06T04:19:35;8.60;82.30
58447;DHT22;44240;51.840;7.258;2024-03-06T04:22:02;8.60;82.20
58447;DHT22;44240;51.840;7.258;2024-03-06T04:24:29;8.60;82.30
58447;DHT22;44240;51.840;7.258;2024-03-06T04:26:56;8.60;82.30
58447;DHT22;44240;51.840;7.258;2024-03-06T04:29:22;8.60;82.30
58447;DHT22;44240;51.840;7.258;2024-03-06T04:31:49;8.50;82.30
58447;DHT22;44240;51.840;7.258;2024-03-06T04:34:16;8.50;82.30
58447;DHT22;44240;51.840;7.258;2024-03-06T04:36:43;8.50;82.40
58447;DHT22;44240;51.840;7.258;2024-03-06T04:39:10;8.50;82.30
58447;DHT22;44240;51.840;7.258;2024-03-06T04:41:36;8.50;82.40
58447;DHT22;44240;51.840;7.258;2024-03-06T04:44:03;8.40;82.50
58447;DHT22;44240;51.840;7.258;2024-03-06T04:46:30;8.40;82.60
58447;DHT22;44240;51.840;7.258;2024-03-06T04:48:57;8.40;82.70
58447;DHT22;44240;51.840;7.258;2024-03-06T04:51:24;8.40;82.60
58447;DHT22;44240;51.840;7.258;2024-03-06T04:53:51;8.30;82.60
58447;DHT22;44240;51.840;7.258;2024-03-06T04:56:17;8.30;82.60
58447;DHT22;44240;51.840;7.258;2024-03-06T04:58:46;8.30;82.70
58447;DHT22;44240;51.840;7.258;2024-03-06T05:01:12;8.30;82.60
58447;DHT22;44240;51.840;7.258;2024-03-06T05:03:39;8.30;82.70
58447;DHT22;44240;51.840;7.258;2024-03-06T05:06:24;8.20;82.60
58447;DHT22;44240;51.840;7.258;2024-03-06T05:09:08;8.30;82.60
58447;DHT22;44240;51.840;7.258;2024-03-06T05:11:55;8.20;82.60
58447;DHT22;44240;51.840;7.258;2024-03-06T05:14:39;8.20;82.60
58447;DHT22;44240;51.840;7.258;2024-03-06T05:17:24;8.20;82.70
58447;DHT22;44240;51.840;7.258;2024-03-06T05:20:08;8.20;82.60
58447;DHT22;44240;51.840;7.258;2024-03-06T05:22:52;8.20;82.70
58447;DHT22;44240;51.840;7.258;2024-03-06T05:25:36;8.20;82.70
58447;DHT22;44240;51.840;7.258;2024-03-06T05:28:21;8.20;82.70
58447;DHT22;44240;51.840;7.258;2024-03-06T05:31:16;8.20;82.70
58447;DHT22;44240;51.840;7.258;2024-03-06T05:34:01;8.10;82.60
58447;DHT22;44240;51.840;7.258;2024-03-06T05:36:46;8.10;82.50
58447;DHT22;44240;51.840;7.258;2024-03-06T05:39:31;8.10;82.60
58447;DHT22;44240;51.840;7.258;2024-03-06T05:42:15;8.10;82.60
58447;DHT22;44240;51.840;7.258;2024-03-06T05:45:00;8.10;82.60
58447;DHT22;44240;51.840;7.258;2024-03-06T05:47:54;8.10;82.70
58447;DHT22;44240;51.840;7.258;2024-03-06T05:50:38;8.00;82.50
58447;DHT22;44240;51.840;7.258;2024-03-06T05:53:23;8.10;82.60
58447;DHT22;44240;51.840;7.258;2024-03-06T05:56:07;8.00;82.70
58447;DHT22;44240;51.840;7.258;2024-03-06T05:58:52;8.00;82.70
58447;DHT22;44240;51.840;7.258;2024-03-06T06:01:18;8.10;82.80
58447;DHT22;44240;51.840;7.258;2024-03-06T06:03:47;8.00;83.90
58447;DHT22;44240;51.840;7.258;2024-03-06T06:06:18;8.10;82.90
58447;DHT22;44240;51.840;7.258;2024-03-06T06:08:47;8.00;82.90
58447;DHT22;44240;51.840;7.258;2024-03-06T06:11:14;8.10;82.90
58447;DHT22;44240;51.840;7.258;2024-03-06T06:13:41;8.10;82.80
58447;DHT22;44240;51.840;7.258;2024-03-06T06:16:08;8.10;82.80
58447;DHT22;44240;51.840;7.258;2024-03-06T06:18:35;8.10;82.80
58447;DHT22;44240;51.840;7.258;2024-03-06T06:21:02;8.10;82.80
58447;DHT22;44240;51.840;7.258;2024-03-06T06:23:34;8.10;82.90
58447;DHT22;44240;51.840;7.258;2024-03-06T06:26:01;8.10;82.90
58447;DHT22;44240;51.840;7.258;2024-03-06T06:28:28;8.10;82.90
58447;DHT22;44240;51.840;7.258;2024-03-06T06:30:55;8.10;83.00
58447;DHT22;44240;51.840;7.258;2024-03-06T06:33:22;8.10;82.90
58447;DHT22;44240;51.840;7.258;2024-03-06T06:35:49;8.10;82.80
58447;DHT22;44240;51.840;7.258;2024-03-06T06:38:16;8.00;82.80
58447;DHT22;44240;51.840;7.258;2024-03-06T06:40:42;8.10;82.90
58447;DHT22;44240;51.840;7.258;2024-03-06T06:43:10;8.00;82.70
58447;DHT22;44240;51.840;7.258;2024-03-06T06:45:37;8.00;82.70
58447;DHT22;44240;51.840;7.258;2024-03-06T06:48:05;8.00;82.70
58447;DHT22;44240;51.840;7.258;2024-03-06T06:50:32;8.00;82.80
58447;DHT22;44240;51.840;7.258;2024-03-06T06:53:00;8.00;82.80
58447;DHT22;44240;51.840;7.258;2024-03-06T06:55:27;8.00;82.80
58447;DHT22;44240;51.840;7.258;2024-03-06T06:57:54;8.00;82.70
58447;DHT22;44240;51.840;7.258;2024-03-06T07:00:22;8.00;82.80
58447;DHT22;44240;51.840;7.258;2024-03-06T07:02:50;8.00;82.70
58447;DHT22;44240;51.840;7.258;2024-03-06T07:05:17;8.00;82.70
58447;DHT22;44240;51.840;7.258;2024-03-06T07:07:44;8.00;82.70
58447;DHT22;44240;51.840;7.258;2024-03-06T07:10:11;8.00;82.80
58447;DHT22;44240;51.840;7.258;2024-03-06T07:12:38;8.00;82.80
58447;DHT22;44240;51.840;7.258;2024-03-06T07:15:05;8.00;82.90
58447;DHT22;44240;51.840;7.258;2024-03-06T07:17:33;8.00;82.90
58447;DHT22;44240;51.840;7.258;2024-03-06T07:20:00;8.00;82.90
58447;DHT22;44240;51.840;7.258;2024-03-06T07:22:27;8.00;82.90
58447;DHT22;44240;51.840;7.258;2024-03-06T07:24:54;8.00;82.90
58447;DHT22;44240;51.840;7.258;2024-03-06T07:27:21;8.00;82.90
58447;DHT22;44240;51.840;7.258;2024-03-06T07:29:49;8.00;82.90
58447;DHT22;44240;51.840;7.258;2024-03-06T07:32:15;8.00;82.90
58447;DHT22;44240;51.840;7.258;2024-03-06T07:34:43;8.00;82.90
58447;DHT22;44240;51.840;7.258;2024-03-06T07:37:10;8.00;83.00
58447;DHT22;44240;51.840;7.258;2024-03-06T07:39:37;8.10;83.00
58447;DHT22;44240;51.840;7.258;2024-03-06T07:42:04;8.00;83.00
58447;DHT22;44240;51.840;7.258;2024-03-06T07:44:31;8.10;83.00
58447;DHT22;44240;51.840;7.258;2024-03-06T07:46:58;8.10;83.10
58447;DHT22;44240;51.840;7.258;2024-03-06T07:49:25;8.00;83.00
58447;DHT22;44240;51.840;7.258;2024-03-06T07:51:51;8.10;83.20
58447;DHT22;44240;51.840;7.258;2024-03-06T07:54:18;8.10;83.40
58447;DHT22;44240;51.840;7.258;2024-03-06T07:56:46;8.10;83.50
58447;DHT22;44240;51.840;7.258;2024-03-06T07:59:13;8.10;83.50
58447;DHT22;44240;51.840;7.258;2024-03-06T08:01:42;8.10;83.70
58447;DHT22;44240;51.840;7.258;2024-03-06T08:04:09;8.10;83.80
58447;DHT22;44240;51.840;7.258;2024-03-06T08:06:35;8.20;84.00
58447;DHT22;44240;51.840;7.258;2024-03-06T08:09:05;8.20;84.10
58447;DHT22;44240;51.840;7.258;2024-03-06T08:11:33;8.20;84.20
58447;DHT22;44240;51.840;7.258;2024-03-06T08:14:00;8.30;84.30
58447;DHT22;44240;51.840;7.258;2024-03-06T08:16:29;8.40;84.30
58447;DHT22;44240;51.840;7.258;2024-03-06T08:19:00;8.40;84.30
58447;DHT22;44240;51.840;7.258;2024-03-06T08:21:27;8.50;84.30
58447;DHT22;44240;51.840;7.258;2024-03-06T08:23:54;8.50;84.10
58447;DHT22;44240;51.840;7.258;2024-03-06T08:26:22;8.50;84.30
58447;DHT22;44240;51.840;7.258;2024-03-06T08:28:49;8.60;84.40
58447;DHT22;44240;51.840;7.258;2024-03-06T08:31:16;8.60;84.50
58447;DHT22;44240;51.840;7.258;2024-03-06T08:33:44;8.70;84.60
58447;DHT22;44240;51.840;7.258;2024-03-06T08:36:11;8.80;84.80
58447;DHT22;44240;51.840;7.258;2024-03-06T08:38:40;8.80;84.80
58447;DHT22;44240;51.840;7.258;2024-03-06T08:41:10;8.80;84.90
58447;DHT22;44240;51.840;7.258;2024-03-06T08:43:37;8.80;84.90
58447;DHT22;44240;51.840;7.258;2024-03-06T08:46:04;8.90;85.10
58447;DHT22;44240;51.840;7.258;2024-03-06T08:48:31;8.90;85.20
58447;DHT22;44240;51.840;7.258;2024-03-06T08:50:57;9.00;85.40
58447;DHT22;44240;51.840;7.258;2024-03-06T08:53:25;9.00;85.40
58447;DHT22;44240;51.840;7.258;2024-03-06T08:55:52;9.10;85.50
58447;DHT22;44240;51.840;7.258;2024-03-06T08:58:18;9.20;85.60
58447;DHT22;44240;51.840;7.258;2024-03-06T09:00:47;9.30;85.70
58447;DHT22;44240;51.840;7.258;2024-03-06T09:03:15;9.30;85.60
58447;DHT22;44240;51.840;7.258;2024-03-06T09:05:43;9.40;85.70
58447;DHT22;44240;51.840;7.258;2024-03-06T09:08:10;9.50;85.70
58447;DHT22;44240;51.840;7.258;2024-03-06T09:10:38;9.50;85.70
58447;DHT22;44240;51.840;7.258;2024-03-06T09:13:05;9.60;85.70
58447;DHT22;44240;51.840;7.258;2024-03-06T09:15:32;9.70;85.80
58447;DHT22;44240;51.840;7.258;2024-03-06T09:17:59;9.80;85.80
58447;DHT22;44240;51.840;7.258;2024-03-06T09:20:26;9.90;85.70
58447;DHT22;44240;51.840;7.258;2024-03-06T09:22:53;10.00;85.50
58447;DHT22;44240;51.840;7.258;2024-03-06T09:25:23;10.00;85.30
58447;DHT22;44240;51.840;7.258;2024-03-06T09:27:54;10.10;85.10
58447;DHT22;44240;51.840;7.258;2024-03-06T09:30:21;10.10;85.00
58447;DHT22;44240;51.840;7.258;2024-03-06T09:32:48;10.10;84.90
58447;DHT22;44240;51.840;7.258;2024-03-06T09:35:15;10.20;84.90
58447;DHT22;44240;51.840;7.258;2024-03-06T09:37:42;10.20;84.90
58447;DHT22;44240;51.840;7.258;2024-03-06T09:40:10;10.20;84.90
58447;DHT22;44240;51.840;7.258;2024-03-06T09:42:37;10.30;84.70
58447;DHT22;44240;51.840;7.258;2024-03-06T09:45:05;10.30;84.50
58447;DHT22;44240;51.840;7.258;2024-03-06T09:47:32;10.30;84.30
58447;DHT22;44240;51.840;7.258;2024-03-06T09:50:02;10.30;84.30
58447;DHT22;44240;51.840;7.258;2024-03-06T09:52:30;10.40;84.20
58447;DHT22;44240;51.840;7.258;2024-03-06T09:54:58;10.30;83.60
58447;DHT22;44240;51.840;7.258;2024-03-06T09:57:26;10.30;83.50
58447;DHT22;44240;51.840;7.258;2024-03-06T09:59:53;10.30;83.60
58447;DHT22;44240;51.840;7.258;2024-03-06T10:02:31;10.30;83.70
58447;DHT22;44240;51.840;7.258;2024-03-06T10:05:01;10.30;83.60
58447;DHT22;44240;51.840;7.258;2024-03-06T10:07:29;10.40;83.40
58447;DHT22;44240;51.840;7.258;2024-03-06T10:09:56;10.50;83.50
58447;DHT22;44240;51.840;7.258;2024-03-06T10:12:23;10.60;83.60
58447;DHT22;44240;51.840;7.258;2024-03-06T10:14:53;10.80;83.60
58447;DHT22;44240;51.840;7.258;2024-03-06T10:17:21;11.00;83.40
58447;DHT22;44240;51.840;7.258;2024-03-06T10:19:54;11.20;83.10
58447;DHT22;44240;51.840;7.258;2024-03-06T10:22:22;11.40;82.70
58447;DHT22;44240;51.840;7.258;2024-03-06T10:24:55;11.60;82.10
58447;DHT22;44240;51.840;7.258;2024-03-06T10:27:23;11.80;81.00
58447;DHT22;44240;51.840;7.258;2024-03-06T10:30:05;11.90;80.80
58447;DHT22;44240;51.840;7.258;2024-03-06T10:32:37;12.00;80.30
58447;DHT22;44240;51.840;7.258;2024-03-06T10:35:05;12.10;80.10
58447;DHT22;44240;51.840;7.258;2024-03-06T10:37:33;12.20;80.00
58447;DHT22;44240;51.840;7.258;2024-03-06T10:40:02;12.40;79.90
58447;DHT22;44240;51.840;7.258;2024-03-06T10:42:33;12.60;79.50
58447;DHT22;44240;51.840;7.258;2024-03-06T10:45:04;12.70;78.80
58447;DHT22;44240;51.840;7.258;2024-03-06T10:47:31;12.90;78.50
58447;DHT22;44240;51.840;7.258;2024-03-06T10:50:00;13.00;78.10
58447;DHT22;44240;51.840;7.258;2024-03-06T10:52:28;13.10;77.70
58447;DHT22;44240;51.840;7.258;2024-03-06T10:54:59;13.20;77.40
58447;DHT22;44240;51.840;7.258;2024-03-06T10:57:26;13.30;77.10
58447;DHT22;44240;51.840;7.258;2024-03-06T10:59:56;13.30;76.80
58447;DHT22;44240;51.840;7.258;2024-03-06T11:02:30;13.40;76.40
58447;DHT22;44240;51.840;7.258;2024-03-06T11:04:57;13.40;76.20
58447;DHT22;44240;51.840;7.258;2024-03-06T11:07:25;13.50;76.00
58447;DHT22;44240;51.840;7.258;2024-03-06T11:09:54;13.50;75.90
58447;DHT22;44240;51.840;7.258;2024-03-06T11:12:33;13.50;75.80
58447;DHT22;44240;51.840;7.258;2024-03-06T11:15:00;13.50;75.10
58447;DHT22;44240;51.840;7.258;2024-03-06T11:17:27;13.50;75.00
58447;DHT22;44240;51.840;7.258;2024-03-06T11:28:19;13.40;73.90
58447;DHT22;44240;51.840;7.258;2024-03-06T11:33:42;13.30;74.00
58447;DHT22;44240;51.840;7.258;2024-03-06T11:36:18;13.30;74.10
58447;DHT22;44240;51.840;7.258;2024-03-06T11:38:53;13.30;73.20
58447;DHT22;44240;51.840;7.258;2024-03-06T11:41:23;13.30;72.50
58447;DHT22;44240;51.840;7.258;2024-03-06T11:43:54;13.20;72.20
58447;DHT22;44240;51.840;7.258;2024-03-06T11:46:40;13.20;72.10
58447;DHT22;44240;51.840;7.258;2024-03-06T11:49:29;13.20;72.50
58447;DHT22;44240;51.840;7.258;2024-03-06T11:52:01;13.10;72.30
58447;DHT22;44240;51.840;7.258;2024-03-06T11:54:30;13.10;72.60
58447;DHT22;44240;51.840;7.258;2024-03-06T11:56:59;13.10;72.90
58447;DHT22;44240;51.840;7.258;2024-03-06T11:59:34;13.10;73.10
58447;DHT22;44240;51.840;7.258;2024-03-06T12:02:04;13.10;72.90
58447;DHT22;44240;51.840;7.258;2024-03-06T12:04:32;13.10;72.50
58447;DHT22;44240;51.840;7.258;2024-03-06T12:07:06;13.10;71.70
58447;DHT22;44240;51.840;7.258;2024-03-06T12:09:35;13.10;71.00
58447;DHT22;44240;51.840;7.258;2024-03-06T12:12:08;13.20;70.80
58447;DHT22;44240;51.840;7.258;2024-03-06T12:14:36;13.20;70.60
58447;DHT22;44240;51.840;7.258;2024-03-06T12:17:03;13.30;70.80
58447;DHT22;44240;51.840;7.258;2024-03-06T12:19:35;13.30;70.80
58447;DHT22;44240;51.840;7.258;2024-03-06T12:22:05;13.40;70.80
58447;DHT22;44240;51.840;7.258;2024-03-06T12:24:33;13.50;69.70
58447;DHT22;44240;51.840;7.258;2024-03-06T12:27:01;13.60;68.70
58447;DHT22;44240;51.840;7.258;2024-03-06T12:29:29;13.60;68.20
58447;DHT22;44240;51.840;7.258;2024-03-06T12:32:00;13.70;68.30
58447;DHT22;44240;51.840;7.258;2024-03-06T12:34:28;13.70;68.00
58447;DHT22;44240;51.840;7.258;2024-03-06T12:36:56;13.80;67.40
58447;DHT22;44240;51.840;7.258;2024-03-06T12:39:23;13.80;67.20
58447;DHT22;44240;51.840;7.258;2024-03-06T12:41:51;13.80;67.20
58447;DHT22;44240;51.840;7.258;2024-03-06T12:44:22;13.80;67.40
58447;DHT22;44240;51.840;7.258;2024-03-06T12:46:49;13.90;67.50
58447;DHT22;44240;51.840;7.258;2024-03-06T12:49:16;13.90;67.80
58447;DHT22;44240;51.840;7.258;2024-03-06T12:51:45;13.90;68.00
58447;DHT22;44240;51.840;7.258;2024-03-06T12:54:11;13.90;67.90
58447;DHT22;44240;51.840;7.258;2024-03-06T12:56:39;13.90;68.10
58447;DHT22;44240;51.840;7.258;2024-03-06T12:59:07;13.90;68.10
58447;DHT22;44240;51.840;7.258;2024-03-06T13:01:35;13.80;68.10
58447;DHT22;44240;51.840;7.258;2024-03-06T13:04:02;13.80;68.10
58447;DHT22;44240;51.840;7.258;2024-03-06T13:06:33;13.80;68.30
58447;DHT22;44240;51.840;7.258;2024-03-06T13:08:59;13.80;68.10
58447;DHT22;44240;51.840;7.258;2024-03-06T13:11:26;13.80;68.00
58447;DHT22;44240;51.840;7.258;2024-03-06T13:13:53;13.70;67.90
58447;DHT22;44240;51.840;7.258;2024-03-06T13:16:20;13.70;68.00
58447;DHT22;44240;51.840;7.258;2024-03-06T13:18:49;13.60;67.90
58447;DHT22;44240;51.840;7.258;2024-03-06T13:21:19;13.60;67.90
58447;DHT22;44240;51.840;7.258;2024-03-06T13:23:46;13.50;68.00
58447;DHT22;44240;51.840;7.258;2024-03-06T13:26:13;13.50;68.30
58447;DHT22;44240;51.840;7.258;2024-03-06T13:28:40;13.50;68.30
58447;DHT22;44240;51.840;7.258;2024-03-06T13:31:07;13.50;68.70
58447;DHT22;44240;51.840;7.258;2024-03-06T13:33:34;13.40;68.60
58447;DHT22;44240;51.840;7.258;2024-03-06T13:36:01;13.40;68.70
58447;DHT22;44240;51.840;7.258;2024-03-06T13:38:31;13.40;68.90
58447;DHT22;44240;51.840;7.258;2024-03-06T13:40:58;13.40;69.10
58447;DHT22;44240;51.840;7.258;2024-03-06T13:43:25;13.40;69.30
58447;DHT22;44240;51.840;7.258;2024-03-06T13:45:52;13.40;69.40
58447;DHT22;44240;51.840;7.258;2024-03-06T13:48:19;13.40;69.30
58447;DHT22;44240;51.840;7.258;2024-03-06T13:50:46;13.40;69.10
58447;DHT22;44240;51.840;7.258;2024-03-06T13:53:14;13.50;69.10
58447;DHT22;44240;51.840;7.258;2024-03-06T13:55:41;13.50;68.80
58447;DHT22;44240;51.840;7.258;2024-03-06T13:58:08;13.60;68.70
58447;DHT22;44240;51.840;7.258;2024-03-06T14:00:36;13.60;68.70
58447;DHT22;44240;51.840;7.258;2024-03-06T14:03:03;13.70;68.90
58447;DHT22;44240;51.840;7.258;2024-03-06T14:05:30;13.80;68.70
58447;DHT22;44240;51.840;7.258;2024-03-06T14:07:57;14.00;68.60
58447;DHT22;44240;51.840;7.258;2024-03-06T14:10:24;14.20;68.40
58447;DHT22;44240;51.840;7.258;2024-03-06T14:12:53;14.50;68.00
58447;DHT22;44240;51.840;7.258;2024-03-06T14:15:21;14.70;67.20
58447;DHT22;44240;51.840;7.258;2024-03-06T14:17:50;15.20;66.40
58447;DHT22;44240;51.840;7.258;2024-03-06T14:20:17;15.60;64.70
58447;DHT22;44240;51.840;7.258;2024-03-06T14:22:45;15.60;63.80
58447;DHT22;44240;51.840;7.258;2024-03-06T14:25:12;16.10;62.40
58447;DHT22;44240;51.840;7.258;2024-03-06T14:27:39;16.60;60.90
58447;DHT22;44240;51.840;7.258;2024-03-06T14:30:06;17.10;59.40
58447;DHT22;44240;51.840;7.258;2024-03-06T14:32:34;17.40;58.00
58447;DHT22;44240;51.840;7.258;2024-03-06T14:35:01;17.80;57.20
58447;DHT22;44240;51.840;7.258;2024-03-06T14:37:28;17.90;56.70
58447;DHT22;44240;51.840;7.258;2024-03-06T14:39:55;17.80;56.50
58447;DHT22;44240;51.840;7.258;2024-03-06T14:42:22;17.50;57.10
58447;DHT22;44240;51.840;7.258;2024-03-06T14:44:50;17.10;57.80
58447;DHT22;44240;51.840;7.258;2024-03-06T14:47:17;16.70;58.40
58447;DHT22;44240;51.840;7.258;2024-03-06T14:49:44;16.50;59.00
58447;DHT22;44240;51.840;7.258;2024-03-06T14:52:12;16.20;59.30
58447;DHT22;44240;51.840;7.258;2024-03-06T14:54:42;16.10;59.70
58447;DHT22;44240;51.840;7.258;2024-03-06T14:57:11;16.30;59.50
58447;DHT22;44240;51.840;7.258;2024-03-06T14:59:39;16.40;59.10
58447;DHT22;44240;51.840;7.258;2024-03-06T15:02:06;16.50;58.80
58447;DHT22;44240;51.840;7.258;2024-03-06T15:04:33;16.60;58.50
58447;DHT22;44240;51.840;7.258;2024-03-06T15:07:00;16.80;57.80
58447;DHT22;44240;51.840;7.258;2024-03-06T15:09:27;16.90;57.30
58447;DHT22;44240;51.840;7.258;2024-03-06T15:11:54;16.90;57.00
58447;DHT22;44240;51.840;7.258;2024-03-06T15:14:23;17.00;56.90
58447;DHT22;44240;51.840;7.258;2024-03-06T15:16:50;17.00;56.80
58447;DHT22;44240;51.840;7.258;2024-03-06T15:19:17;17.10;56.70
58447;DHT22;44240;51.840;7.258;2024-03-06T15:21:44;17.10;56.10
58447;DHT22;44240;51.840;7.258;2024-03-06T15:24:11;17.10;55.70
58447;DHT22;44240;51.840;7.258;2024-03-06T15:26:38;17.00;55.90
58447;DHT22;44240;51.840;7.258;2024-03-06T15:29:05;16.70;56.40
58447;DHT22;44240;51.840;7.258;2024-03-06T15:31:33;16.40;57.00
58447;DHT22;44240;51.840;7.258;2024-03-06T15:34:00;16.10;57.70
58447;DHT22;44240;51.840;7.258;2024-03-06T15:36:27;16.00;59.00
58447;DHT22;44240;51.840;7.258;2024-03-06T15:38:53;15.90;58.10
58447;DHT22;44240;51.840;7.258;2024-03-06T15:41:24;15.90;57.90
58447;DHT22;44240;51.840;7.258;2024-03-06T15:43:51;15.90;57.60
58447;DHT22;44240;51.840;7.258;2024-03-06T15:46:18;15.80;57.70
58447;DHT22;44240;51.840;7.258;2024-03-06T15:48:45;15.80;57.60
58447;DHT22;44240;51.840;7.258;2024-03-06T15:51:12;15.80;57.60
58447;DHT22;44240;51.840;7.258;2024-03-06T15:53:40;15.70;58.10
58447;DHT22;44240;51.840;7.258;2024-03-06T15:56:07;15.50;58.50
58447;DHT22;44240;51.840;7.258;2024-03-06T15:58:35;15.30;59.10
58447;DHT22;44240;51.840;7.258;2024-03-06T16:01:01;15.10;59.30